createdAt,value
2023-07-03T00:00:55.037Z,171.35
2023-07-03T00:01:55.165Z,184.04
2023-07-03T00:02:55.250Z,166.85
2023-07-03T00:03:55.267Z,162.90
2023-07-03T00:04:55.468Z,144.57
2023-07-03T00:05:55.373Z,152.88
2023-07-03T00:06:55.410Z,168.96
2023-07-03T00:07:55.477Z,161.34
2023-07-03T00:08:55.512Z,153.03
2023-07-03T00:09:55.585Z,150.44
2023-07-03T00:10:55.640Z,169.79
2023-07-03T00:11:55.698Z,184.55
2023-07-03T00:12:55.751Z,199.83
2023-07-03T00:13:55.858Z,188.86
2023-07-03T00:14:55.891Z,197.22
2023-07-03T00:15:55.939Z,194.05
2023-07-03T00:16:56.061Z,206.15
2023-07-03T00:17:56.146Z,205.27
2023-07-03T00:18:56.133Z,206.97
2023-07-03T00:19:56.166Z,208.77
2023-07-03T00:20:56.204Z,202.97
2023-07-03T00:21:56.213Z,188.33
2023-07-03T00:22:56.294Z,181.85
2023-07-03T00:23:56.401Z,178.49
2023-07-03T00:24:56.359Z,186.19
2023-07-03T00:25:56.365Z,195.84
2023-07-03T00:26:56.342Z,201.23
2023-07-03T00:27:56.345Z,205.18
2023-07-03T00:28:56.379Z,207.40
2023-07-03T00:29:56.334Z,216.76
2023-07-03T00:30:56.325Z,229.26
2023-07-03T00:31:56.442Z,216.58
2023-07-03T00:32:56.357Z,206.25
2023-07-03T00:33:56.318Z,215.41
2023-07-03T00:34:56.410Z,216.99
2023-07-03T00:35:56.418Z,215.05
2023-07-03T00:36:56.429Z,214.66
2023-07-03T00:37:56.426Z,214.38
2023-07-03T00:38:56.456Z,205.92
2023-07-03T00:39:56.505Z,208.32
2023-07-03T00:40:56.511Z,206.71
2023-07-03T00:41:56.499Z,212.08
2023-07-03T00:42:56.522Z,212.31
2023-07-03T00:43:56.529Z,205.52
2023-07-03T00:44:56.558Z,202.40
2023-07-03T00:45:56.601Z,201.84
2023-07-03T00:46:56.595Z,202.67
2023-07-03T00:47:56.648Z,203.88
2023-07-03T00:48:56.661Z,208.41
2023-07-03T00:49:56.631Z,211.77
2023-07-03T00:50:56.678Z,211.61
2023-07-03T00:51:56.721Z,220.92
2023-07-03T00:52:56.730Z,221.12
2023-07-03T00:53:56.746Z,223.11
2023-07-03T00:54:56.813Z,240.37
2023-07-03T00:55:56.821Z,247.70
2023-07-03T00:56:56.852Z,239.87
2023-07-03T00:57:56.860Z,224.38
2023-07-03T00:58:56.908Z,224.88
2023-07-03T00:59:56.904Z,227.73
2023-07-03T01:00:56.994Z,239.17
2023-07-03T01:01:57.114Z,242.77
2023-07-03T01:02:57.081Z,248.80
2023-07-03T01:03:57.062Z,246.89
2023-07-03T01:04:57.277Z,243.71
2023-07-03T01:05:57.317Z,238.98
2023-07-03T01:06:57.196Z,238.43
2023-07-03T01:07:57.258Z,242.30
2023-07-03T01:08:57.282Z,247.35
2023-07-03T01:09:57.316Z,241.46
2023-07-03T01:10:57.349Z,236.68
2023-07-03T01:11:57.415Z,218.28
2023-07-03T01:12:57.464Z,232.27
2023-07-03T01:13:57.480Z,224.30
2023-07-03T01:14:57.484Z,228.66
2023-07-03T01:15:57.573Z,221.46
2023-07-03T01:16:57.614Z,216.40
2023-07-03T01:17:57.712Z,212.47
2023-07-03T01:18:57.686Z,197.91
2023-07-03T01:19:57.696Z,184.36
2023-07-03T01:20:57.745Z,193.09
2023-07-03T01:21:57.772Z,209.72
2023-07-03T01:22:57.825Z,217.53
2023-07-03T01:23:57.881Z,232.75
2023-07-03T01:24:57.934Z,204.57
2023-07-03T01:25:57.983Z,194.88
2023-07-03T01:26:58.092Z,196.91
2023-07-03T01:27:58.101Z,210.67
2023-07-03T01:28:58.173Z,208.12
2023-07-03T01:29:58.217Z,218.59
2023-07-03T01:30:58.280Z,219.98
2023-07-03T01:31:58.419Z,213.84
2023-07-03T01:32:58.535Z,227.65
2023-07-03T01:33:58.451Z,222.40
2023-07-03T01:34:58.519Z,207.39
2023-07-03T01:35:58.577Z,198.91
2023-07-03T01:36:58.621Z,193.02
2023-07-03T01:37:58.665Z,195.67
2023-07-03T01:38:58.759Z,184.57
2023-07-03T01:39:58.784Z,171.51
2023-07-03T01:40:58.854Z,177.15
2023-07-03T01:41:58.937Z,188.78
2023-07-03T01:42:58.999Z,188.40
2023-07-03T01:43:59.052Z,192.69
2023-07-03T01:44:59.093Z,195.34
2023-07-03T01:45:59.134Z,191.47
2023-07-03T01:46:59.244Z,190.44
2023-07-03T01:47:59.269Z,186.39
2023-07-03T01:48:59.314Z,184.28
2023-07-03T01:49:59.361Z,190.71
2023-07-03T01:50:59.389Z,199.31
2023-07-03T01:51:59.450Z,206.84
2023-07-03T01:52:59.501Z,209.34
2023-07-03T01:53:59.564Z,211.83
2023-07-03T01:54:59.615Z,214.45
2023-07-03T01:55:59.708Z,225.02
2023-07-03T01:56:59.761Z,236.01
2023-07-03T01:57:59.878Z,223.51
2023-07-03T01:58:59.849Z,203.96
2023-07-03T01:59:59.927Z,188.98
2023-07-03T02:01:00.042Z,180.04
2023-07-03T02:02:00.060Z,159.60
2023-07-03T02:03:00.192Z,145.77
2023-07-03T02:04:00.123Z,152.32
2023-07-03T02:05:00.269Z,160.33
2023-07-03T02:06:00.256Z,177.44
2023-07-03T02:07:00.319Z,171.38
2023-07-03T02:08:00.330Z,174.51
2023-07-03T02:09:00.437Z,177.40
2023-07-03T02:10:00.493Z,174.47
2023-07-03T02:11:00.577Z,176.35
2023-07-03T02:12:00.627Z,182.64
2023-07-03T02:13:00.692Z,178.62
2023-07-03T02:14:00.724Z,187.75
2023-07-03T02:15:00.773Z,195.87
2023-07-03T02:16:00.858Z,198.11
2023-07-03T02:17:01.054Z,197.76
2023-07-03T02:18:00.996Z,205.18
2023-07-03T02:19:01.029Z,200.18
2023-07-03T02:20:01.100Z,210.23
2023-07-03T02:21:01.150Z,224.79
2023-07-03T02:22:01.240Z,224.65
2023-07-03T02:23:01.329Z,233.27
2023-07-03T02:24:01.305Z,244.75
2023-07-03T02:25:01.404Z,242.68
2023-07-03T02:26:01.488Z,248.27
2023-07-03T02:27:01.536Z,248.97
2023-07-03T02:28:01.553Z,240.07
2023-07-03T02:29:01.613Z,228.48
2023-07-03T02:30:01.693Z,233.19
2023-07-03T02:31:01.802Z,222.52
2023-07-03T02:32:01.802Z,219.63
2023-07-03T02:33:01.874Z,214.52
2023-07-03T02:34:01.882Z,203.05
2023-07-03T02:35:01.994Z,199.18
2023-07-03T02:36:01.986Z,208.73
2023-07-03T02:37:02.011Z,215.81
2023-07-03T02:38:02.065Z,227.01
2023-07-03T02:39:02.160Z,240.84
2023-07-03T02:40:02.181Z,243.97
2023-07-03T02:41:02.295Z,231.50
2023-07-03T02:42:02.305Z,199.17
2023-07-03T02:43:02.363Z,211.59
2023-07-03T02:44:02.394Z,202.57
2023-07-03T02:45:02.472Z,197.30
2023-07-03T02:46:02.527Z,200.26
2023-07-03T02:47:02.648Z,200.01
2023-07-03T02:48:02.712Z,200.48
2023-07-03T02:49:02.718Z,204.41
2023-07-03T02:50:02.880Z,210.88
2023-07-03T02:51:02.900Z,222.94
2023-07-03T02:52:02.877Z,223.07
2023-07-03T02:53:02.943Z,233.61
2023-07-03T02:54:03.021Z,236.42
2023-07-03T02:55:03.081Z,247.86
2023-07-03T02:56:03.161Z,247.67
2023-07-03T02:57:03.244Z,247.45
2023-07-03T02:58:03.277Z,226.90
2023-07-03T02:59:03.368Z,213.50
2023-07-03T03:00:03.391Z,205.55
2023-07-03T03:01:03.453Z,210.49
2023-07-03T03:02:03.509Z,220.25
2023-07-03T03:03:03.708Z,229.75
2023-07-03T03:04:03.638Z,239.57
2023-07-03T03:05:03.743Z,250.00
2023-07-03T03:06:03.754Z,247.34
2023-07-03T03:07:03.792Z,243.79
2023-07-03T03:08:03.877Z,243.55
2023-07-03T03:09:03.936Z,250.00
2023-07-03T03:10:03.977Z,221.27
2023-07-03T03:11:04.097Z,200.83
2023-07-03T03:12:04.095Z,198.36
2023-07-03T03:13:04.143Z,208.80
2023-07-03T03:14:04.219Z,212.06
2023-07-03T03:15:04.273Z,221.71
2023-07-03T03:16:04.321Z,218.39
2023-07-03T03:17:04.383Z,221.19
2023-07-03T03:18:04.523Z,214.82
2023-07-03T03:19:04.482Z,203.17
2023-07-03T03:20:04.520Z,213.66
2023-07-03T03:21:04.530Z,212.37
2023-07-03T03:22:04.517Z,221.04
2023-07-03T03:23:04.557Z,232.82
2023-07-03T03:24:04.559Z,243.42
2023-07-03T03:25:04.584Z,240.76
2023-07-03T03:26:04.597Z,248.90
2023-07-03T03:27:04.625Z,250.00
2023-07-03T03:28:04.688Z,249.74
2023-07-03T03:29:04.702Z,244.48
2023-07-03T03:30:04.739Z,234.56
2023-07-03T03:31:04.807Z,241.68
2023-07-03T03:32:04.759Z,247.41
2023-07-03T03:33:04.768Z,250.00
2023-07-03T03:34:04.859Z,250.00
2023-07-03T03:35:05.007Z,249.63
2023-07-03T03:36:04.918Z,246.60
2023-07-03T03:37:04.959Z,242.58
2023-07-03T03:38:05.001Z,232.46
2023-07-03T03:39:04.990Z,203.20
2023-07-03T03:40:04.991Z,170.46
2023-07-03T03:41:05.024Z,153.22
2023-07-03T03:42:05.034Z,139.91
2023-07-03T03:43:05.030Z,142.18
2023-07-03T03:44:05.034Z,141.27
2023-07-03T03:45:05.055Z,138.90
2023-07-03T03:46:05.053Z,146.35
2023-07-03T03:47:05.050Z,156.16
2023-07-03T03:48:05.216Z,162.70
2023-07-03T03:49:05.048Z,168.80
2023-07-03T03:50:05.078Z,173.99
2023-07-03T03:51:05.073Z,177.72
2023-07-03T03:52:05.100Z,155.35
2023-07-03T03:53:05.150Z,158.98
2023-07-03T03:54:05.153Z,170.55
2023-07-03T03:55:05.160Z,159.69
2023-07-03T03:56:05.193Z,159.63
2023-07-03T03:57:05.281Z,170.03
2023-07-03T03:58:05.256Z,176.10
2023-07-03T03:59:05.271Z,160.11
2023-07-03T04:00:05.262Z,141.18
2023-07-03T04:01:05.277Z,144.17
2023-07-03T04:02:05.302Z,133.75
2023-07-03T04:03:05.297Z,117.92
2023-07-03T04:04:05.284Z,109.46
2023-07-03T04:05:05.301Z,115.14
2023-07-03T04:06:05.302Z,121.09
2023-07-03T04:07:05.304Z,126.47
2023-07-03T04:08:05.358Z,124.80
2023-07-03T04:09:05.313Z,138.37
2023-07-03T04:10:05.302Z,148.92
2023-07-03T04:11:05.334Z,159.18
2023-07-03T04:12:05.317Z,170.15
2023-07-03T04:13:05.368Z,184.79
2023-07-03T04:14:05.368Z,201.36
2023-07-03T04:15:05.382Z,213.69
2023-07-03T04:16:05.371Z,215.88
2023-07-03T04:17:05.346Z,218.40
2023-07-03T04:18:05.354Z,221.76
2023-07-03T04:19:05.353Z,225.65
2023-07-03T04:20:05.372Z,223.81
2023-07-03T04:21:05.338Z,223.88
2023-07-03T04:22:05.351Z,236.42
2023-07-03T04:23:05.347Z,241.78
2023-07-03T04:24:05.396Z,234.14
2023-07-03T04:25:05.339Z,234.73
2023-07-03T04:26:05.351Z,237.27
2023-07-03T04:27:05.363Z,224.39
2023-07-03T04:28:05.355Z,214.26
2023-07-03T04:29:05.356Z,217.52
2023-07-03T04:30:05.353Z,210.91
2023-07-03T04:31:05.387Z,201.92
2023-07-03T04:32:05.404Z,204.15
2023-07-03T04:33:05.418Z,186.89
2023-07-03T04:34:05.394Z,180.30
2023-07-03T04:35:05.430Z,187.46
2023-07-03T04:36:05.410Z,194.18
2023-07-03T04:37:05.513Z,200.30
2023-07-03T04:38:05.436Z,208.34
2023-07-03T04:39:05.421Z,211.24
2023-07-03T04:40:05.474Z,211.76
2023-07-03T04:41:05.448Z,211.49
2023-07-03T04:42:05.456Z,218.11
2023-07-03T04:43:05.446Z,221.49
2023-07-03T04:44:05.454Z,204.54
2023-07-03T04:45:05.462Z,200.75
2023-07-03T04:46:05.499Z,205.16
2023-07-03T04:47:05.457Z,207.83
2023-07-03T04:48:05.473Z,198.64
2023-07-03T04:49:05.428Z,202.05
2023-07-03T04:50:05.457Z,195.32
2023-07-03T04:51:05.474Z,197.26
2023-07-03T04:52:05.500Z,190.58
2023-07-03T04:53:05.482Z,188.85
2023-07-03T04:54:05.470Z,190.25
2023-07-03T04:55:05.517Z,192.68
2023-07-03T04:56:05.496Z,204.24
2023-07-03T04:57:05.540Z,214.30
2023-07-03T04:58:05.488Z,214.71
2023-07-03T04:59:05.507Z,223.68
2023-07-03T05:00:05.537Z,207.02
2023-07-03T05:02:24.947Z,25.00
2023-07-03T05:03:24.957Z,25.00
2023-07-03T05:04:24.848Z,25.00
2023-07-03T05:05:24.777Z,25.00
2023-07-03T05:06:24.877Z,25.00
2023-07-03T05:07:24.768Z,25.40
2023-07-03T05:08:24.750Z,24.93
2023-07-03T05:09:24.774Z,25.85
2023-07-03T05:10:24.774Z,31.52
2023-07-03T05:11:24.767Z,36.44
2023-07-03T05:12:24.771Z,46.55
2023-07-03T05:13:24.742Z,66.47
2023-07-03T05:14:24.758Z,76.20
2023-07-03T05:15:24.733Z,86.47
2023-07-03T05:16:24.868Z,81.80
2023-07-03T05:17:24.742Z,84.35
2023-07-03T05:18:24.664Z,91.98
2023-07-03T05:19:24.700Z,95.28
2023-07-03T05:20:24.684Z,103.78
2023-07-03T05:21:24.789Z,105.99
2023-07-03T05:22:24.685Z,118.07
2023-07-03T05:23:24.633Z,127.93
2023-07-03T05:24:24.692Z,131.15
2023-07-03T05:25:24.717Z,126.37
2023-07-03T05:26:24.850Z,135.63
2023-07-03T05:27:24.738Z,127.39
2023-07-03T05:28:24.733Z,112.19
2023-07-03T05:29:24.765Z,110.27
2023-07-03T05:30:24.760Z,106.89
2023-07-03T05:31:25.019Z,114.21
2023-07-03T05:32:24.980Z,115.02
2023-07-03T05:33:24.963Z,118.50
2023-07-03T05:34:24.990Z,133.55
2023-07-03T05:35:24.979Z,142.75
2023-07-03T05:36:25.492Z,143.93
2023-07-03T05:37:25.101Z,149.42
2023-07-03T05:38:25.300Z,145.55
2023-07-03T05:39:25.245Z,154.51
2023-07-03T05:40:25.340Z,277.49
2023-07-03T05:41:25.939Z,247.80
2023-07-03T05:42:27.612Z,207.67
2023-07-03T05:43:25.450Z,180.94
2023-07-03T05:44:25.696Z,167.00
2023-07-03T05:46:52.871Z,25.00
2023-07-03T05:47:45.297Z,25.00
2023-07-03T05:48:45.290Z,25.00
2023-07-03T05:49:45.324Z,25.00
2023-07-03T05:50:45.552Z,25.00
2023-07-03T05:51:45.151Z,25.00
2023-07-03T05:52:45.151Z,27.70
2023-07-03T05:53:45.129Z,31.76
2023-07-03T05:54:45.154Z,25.00
2023-07-03T05:55:45.121Z,25.19
2023-07-03T05:56:45.434Z,29.48
2023-07-03T05:57:45.122Z,27.82
2023-07-03T05:58:45.245Z,29.09
2023-07-03T05:59:45.109Z,25.00
2023-07-03T06:00:45.161Z,27.04
2023-07-03T06:01:46.697Z,23.32
2023-07-03T06:02:45.071Z,25.16
2023-07-03T06:03:45.186Z,36.35
2023-07-03T06:04:45.212Z,51.60
2023-07-03T06:05:45.239Z,60.45
2023-07-03T06:06:45.447Z,55.43
2023-07-03T06:07:45.350Z,46.27
2023-07-03T06:08:45.364Z,40.04
2023-07-03T06:09:45.357Z,53.86
2023-07-03T06:10:45.461Z,54.57
2023-07-03T06:11:45.417Z,54.92
2023-07-03T06:12:45.452Z,49.19
2023-07-03T06:13:46.416Z,60.27
2023-07-03T06:14:45.448Z,57.76
2023-07-03T06:15:45.540Z,45.09
2023-07-03T06:16:45.971Z,26.25
2023-07-03T06:17:45.702Z,25.00
2023-07-03T06:18:46.486Z,28.42
2023-07-03T06:19:45.643Z,40.50
2023-07-03T06:20:45.600Z,60.39
2023-07-03T06:21:45.923Z,86.12
2023-07-03T06:22:45.666Z,102.04
2023-07-03T06:23:45.743Z,62.31
2023-07-03T06:24:45.715Z,25.91
2023-07-03T06:25:45.729Z,20.32
2023-07-03T06:26:45.948Z,25.60
2023-07-03T06:27:45.799Z,27.80
2023-07-03T06:28:45.803Z,26.90
2023-07-03T06:29:45.861Z,25.00
2023-07-03T06:30:46.750Z,33.98
2023-07-03T06:31:45.952Z,46.09
2023-07-03T06:32:45.964Z,47.04
2023-07-03T06:33:45.922Z,17.80
2023-07-03T06:34:45.876Z,7.42
2023-07-03T06:35:46.077Z,20.48
2023-07-03T06:36:46.451Z,18.14
2023-07-03T06:37:46.085Z,27.90
2023-07-03T06:38:46.011Z,18.48
2023-07-03T06:39:46.085Z,3.58
2023-07-03T06:40:46.173Z,33.01
2023-07-03T06:41:46.462Z,44.85
2023-07-03T06:42:46.062Z,64.63
2023-07-03T06:43:46.084Z,54.32
2023-07-03T06:44:46.135Z,77.67
2023-07-03T06:45:46.117Z,103.69
2023-07-03T06:46:46.163Z,73.59
2023-07-03T06:47:46.147Z,62.16
2023-07-03T06:48:46.174Z,39.14
2023-07-03T06:49:46.142Z,33.65
2023-07-03T06:50:46.101Z,27.80
2023-07-03T06:51:46.413Z,31.81
2023-07-03T06:52:46.258Z,25.39
2023-07-03T06:53:47.316Z,19.47
2023-07-03T06:54:46.343Z,0.00
2023-07-03T06:55:46.398Z,0.00
2023-07-03T06:56:47.081Z,0.00
2023-07-03T06:57:46.510Z,28.51
2023-07-03T06:58:46.566Z,22.37
2023-07-03T06:59:46.629Z,27.25
2023-07-03T07:00:46.669Z,0.00
2023-07-03T07:01:46.994Z,0.00
2023-07-03T07:02:46.786Z,0.00
2023-07-03T07:03:47.500Z,10.97
2023-07-03T07:04:47.050Z,33.88
2023-07-03T07:05:47.088Z,28.19
2023-07-03T07:06:48.052Z,30.16
2023-07-03T07:07:47.303Z,31.07
2023-07-03T07:08:47.071Z,40.33
2023-07-03T07:09:47.233Z,37.18
2023-07-03T07:10:47.223Z,15.15
2023-07-03T07:11:49.139Z,39.30
2023-07-03T07:12:49.068Z,77.62
2023-07-03T07:13:47.206Z,78.24
2023-07-03T07:14:48.267Z,45.29
2023-07-03T07:15:47.122Z,54.11
2023-07-03T07:16:47.513Z,25.58
2023-07-03T07:17:52.317Z,47.33
2023-07-03T07:18:48.214Z,77.76
2023-07-03T07:19:47.123Z,78.47
2023-07-03T07:20:47.138Z,79.09
2023-07-03T07:21:49.024Z,47.64
2023-07-03T07:22:47.149Z,4.07
2023-07-03T07:23:47.184Z,0.00
2023-07-03T07:24:48.223Z,29.96
2023-07-03T07:25:47.194Z,40.94
2023-07-03T07:26:47.483Z,56.07
2023-07-03T07:27:47.092Z,69.62
2023-07-03T07:28:47.085Z,101.97
2023-07-03T07:29:47.071Z,101.81
2023-07-03T07:30:47.072Z,73.72
2023-07-03T07:31:47.472Z,60.96
2023-07-03T07:32:47.081Z,0.00
2023-07-03T07:33:47.022Z,0.00
2023-07-03T07:34:47.027Z,0.00
2023-07-03T07:35:47.099Z,17.71
2023-07-03T07:36:47.447Z,17.74
2023-07-03T07:37:47.255Z,30.18
2023-07-03T07:38:47.322Z,49.65
2023-07-03T07:39:47.359Z,83.30
2023-07-03T07:40:47.361Z,69.64
2023-07-03T07:41:47.642Z,77.83
2023-07-03T07:42:47.445Z,98.84
2023-07-03T07:43:47.598Z,94.59
2023-07-03T07:44:47.591Z,58.35
2023-07-03T07:45:48.306Z,27.48
2023-07-03T07:46:48.269Z,14.02
2023-07-03T07:47:47.751Z,52.89
2023-07-03T07:48:47.702Z,101.25
2023-07-03T07:49:48.482Z,167.46
2023-07-03T07:50:47.750Z,207.93
2023-07-03T07:51:47.874Z,254.51
2023-07-03T07:52:48.109Z,267.32
2023-07-03T07:53:47.821Z,227.88
2023-07-03T07:54:47.770Z,184.85
2023-07-03T07:55:47.851Z,183.17
2023-07-03T07:56:47.771Z,185.02
2023-07-03T07:57:47.869Z,189.32
2023-07-03T07:58:47.812Z,220.70
2023-07-03T07:59:48.165Z,188.72
2023-07-03T08:00:47.755Z,181.25
2023-07-03T08:01:47.887Z,187.18
2023-07-03T08:02:47.939Z,204.52
2023-07-03T08:03:47.975Z,203.97
2023-07-03T08:04:47.907Z,118.09
2023-07-03T08:05:48.041Z,95.57
2023-07-03T08:06:47.960Z,112.04
2023-07-03T08:07:48.464Z,118.00
2023-07-03T08:08:47.961Z,83.72
2023-07-03T08:09:48.030Z,78.79
2023-07-03T08:10:48.040Z,40.97
2023-07-03T08:11:48.036Z,36.30
2023-07-03T08:12:48.434Z,25.00
2023-07-03T08:13:48.662Z,53.10
2023-07-03T08:14:48.156Z,50.21
2023-07-03T08:15:48.227Z,33.28
2023-07-03T08:16:48.388Z,0.38
2023-07-03T08:17:48.570Z,37.18
2023-07-03T08:18:50.078Z,69.45
2023-07-03T08:19:48.274Z,71.81
2023-07-03T08:20:48.291Z,64.28
2023-07-03T08:21:48.276Z,75.65
2023-07-03T08:22:48.467Z,59.44
2023-07-03T08:23:48.340Z,29.87
2023-07-03T08:24:48.370Z,13.57
2023-07-03T08:25:48.637Z,33.92
2023-07-03T08:26:48.457Z,41.94
2023-07-03T08:27:48.483Z,51.46
2023-07-03T08:28:48.498Z,77.90
2023-07-03T08:29:48.521Z,101.33
2023-07-03T08:30:48.642Z,117.71
2023-07-03T08:31:48.672Z,119.97
2023-07-03T08:32:49.016Z,140.53
2023-07-03T08:33:48.726Z,184.02
2023-07-03T08:37:49.084Z,194.16
2023-07-03T08:38:48.784Z,186.81
2023-07-03T08:39:48.804Z,166.64
2023-07-03T08:40:48.909Z,161.63
2023-07-03T08:41:48.721Z,157.71
2023-07-03T08:42:48.959Z,150.53
2023-07-03T08:43:48.706Z,118.35
2023-07-03T08:44:48.719Z,116.92
2023-07-03T08:45:48.743Z,121.67
2023-07-03T08:47:01.941Z,118.53
2023-07-03T08:47:49.693Z,106.12
2023-07-03T08:48:48.667Z,100.75
2023-07-03T08:49:48.640Z,98.74
2023-07-03T08:50:48.614Z,117.82
2023-07-03T08:51:48.622Z,100.02
2023-07-03T08:52:49.050Z,70.88
2023-07-03T08:53:48.629Z,68.97
2023-07-03T08:54:48.685Z,69.19
2023-07-03T08:55:48.661Z,71.86
2023-07-03T08:56:48.609Z,76.12
2023-07-03T08:57:49.955Z,108.21
2023-07-03T08:58:48.642Z,105.26
2023-07-03T08:59:48.673Z,117.17
2023-07-03T09:00:48.936Z,127.38
2023-07-03T09:01:48.858Z,159.73
2023-07-03T09:02:48.872Z,102.08
2023-07-03T09:03:48.898Z,95.93
2023-07-03T09:04:49.244Z,94.86
2023-07-03T09:05:49.199Z,99.67
2023-07-03T09:06:48.929Z,105.83
2023-07-03T09:07:49.001Z,127.26
2023-07-03T09:08:49.036Z,153.17
2023-07-03T09:09:49.063Z,136.94
2023-07-03T09:10:49.120Z,158.51
2023-07-03T09:11:49.540Z,122.40
2023-07-03T09:12:49.172Z,109.94
2023-07-03T09:13:49.207Z,121.29
2023-07-03T09:14:49.240Z,169.23
2023-07-03T09:15:49.532Z,108.11
2023-07-03T09:16:49.438Z,73.88
2023-07-03T09:17:49.593Z,69.17
2023-07-03T09:18:49.270Z,43.63
2023-07-03T09:19:49.313Z,72.97
2023-07-03T09:20:49.604Z,79.46
2023-07-03T09:21:49.401Z,39.87
2023-07-03T09:22:49.512Z,17.34
2023-07-03T09:23:49.484Z,0.00
2023-07-03T09:24:50.402Z,16.54
2023-07-03T09:25:50.004Z,0.00
2023-07-03T09:26:49.727Z,0.00
2023-07-03T09:27:50.042Z,33.15
2023-07-03T09:28:49.618Z,35.50
2023-07-03T09:29:50.024Z,37.82
2023-07-03T09:30:50.187Z,48.75
2023-07-03T09:32:50.232Z,37.35
2023-07-03T09:33:49.873Z,19.75
2023-07-03T09:34:49.845Z,34.34
2023-07-03T09:35:50.072Z,35.28
2023-07-03T09:36:49.901Z,23.15
2023-07-03T09:37:50.021Z,25.00
2023-07-03T09:38:50.021Z,54.53
2023-07-03T09:39:50.071Z,39.49
2023-07-03T09:40:50.146Z,21.00
2023-07-03T09:41:50.125Z,30.14
2023-07-03T09:42:50.526Z,21.35
2023-07-03T09:43:50.156Z,55.45
2023-07-03T09:44:50.221Z,57.83
2023-07-03T09:45:50.356Z,60.78
2023-07-03T09:46:50.318Z,51.30
2023-07-03T09:47:50.655Z,50.11
2023-07-03T09:48:50.392Z,43.48
2023-07-03T09:49:50.551Z,38.65
2023-07-03T09:51:05.698Z,43.36
2023-07-03T09:51:51.492Z,29.41
2023-07-03T09:53:03.549Z,43.22
2023-07-03T09:53:51.395Z,43.86
2023-07-03T09:54:50.390Z,45.71
2023-07-03T09:55:50.521Z,49.63
2023-07-03T09:56:50.389Z,43.93
2023-07-03T09:57:50.487Z,45.40
2023-07-03T09:58:50.345Z,56.34
2023-07-03T09:59:50.364Z,43.13
2023-07-03T10:00:50.557Z,28.83
2023-07-03T10:03:50.539Z,30.87
2023-07-03T10:06:50.340Z,30.73
2023-07-03T10:07:51.192Z,33.62
2023-07-03T10:08:50.447Z,34.41
2023-07-03T10:11:50.385Z,31.82
2023-07-03T10:12:50.517Z,32.24
2023-07-03T10:13:50.250Z,39.10
2023-07-03T10:14:50.263Z,45.44
2023-07-03T10:15:50.367Z,34.81
2023-07-03T10:16:50.357Z,39.92
2023-07-03T10:17:50.374Z,47.22
2023-07-03T10:18:50.252Z,46.45
2023-07-03T10:19:50.203Z,39.48
2023-07-03T10:20:50.288Z,31.87
2023-07-03T10:21:50.343Z,41.64
2023-07-03T10:22:50.224Z,61.42
2023-07-03T10:23:50.221Z,65.64
2023-07-03T10:24:50.228Z,62.56
2023-07-03T10:25:50.519Z,44.89
2023-07-03T10:26:50.185Z,50.38
2023-07-03T10:27:50.145Z,52.90
2023-07-03T10:28:50.500Z,66.63
2023-07-03T10:29:51.141Z,66.85
2023-07-03T10:30:50.161Z,66.53
2023-07-03T10:31:50.220Z,57.08
2023-07-03T10:32:50.150Z,47.10
2023-07-03T10:33:50.486Z,66.94
2023-07-03T10:34:50.137Z,71.38
2023-07-03T10:35:50.612Z,80.48
2023-07-03T10:36:50.122Z,61.83
2023-07-03T10:37:50.167Z,73.16
2023-07-03T10:38:50.536Z,76.85
2023-07-03T10:39:50.127Z,63.44
2023-07-03T10:40:50.396Z,44.73
2023-07-03T10:41:50.128Z,51.71
2023-07-03T10:42:50.084Z,38.43
2023-07-03T10:43:50.062Z,53.80
2023-07-03T10:44:50.058Z,55.08
2023-07-03T10:45:50.508Z,54.32
2023-07-03T10:46:50.095Z,51.07
2023-07-03T10:47:50.051Z,28.69
2023-07-03T10:48:50.025Z,27.06
2023-07-03T10:49:49.981Z,28.21
2023-07-03T10:50:50.239Z,36.59
2023-07-03T10:51:50.021Z,28.20
2023-07-03T10:52:50.059Z,44.08
2023-07-03T10:53:50.057Z,30.53
2023-07-03T10:54:50.065Z,31.11
2023-07-03T10:55:50.273Z,25.10
2023-07-03T10:56:49.991Z,27.64
2023-07-03T10:57:49.942Z,40.52
2023-07-03T10:58:50.540Z,32.68
2023-07-03T10:59:49.959Z,45.12
2023-07-03T11:00:49.955Z,51.80
2023-07-03T11:01:50.129Z,61.37
2023-07-03T11:02:50.006Z,54.99
2023-07-03T11:04:01.066Z,57.16
2023-07-03T11:04:51.068Z,57.31
2023-07-03T11:05:50.305Z,54.39
2023-07-03T11:06:50.003Z,49.48
2023-07-03T11:07:50.007Z,42.11
2023-07-03T11:08:49.964Z,67.47
2023-07-03T11:09:50.027Z,57.89
2023-07-03T11:10:49.982Z,60.43
2023-07-03T11:11:49.971Z,59.33
2023-07-03T11:12:49.953Z,47.49
2023-07-03T11:13:50.008Z,57.96
2023-07-03T11:14:49.944Z,64.58
2023-07-03T11:15:50.184Z,60.13
2023-07-03T11:16:50.040Z,44.47
2023-07-03T11:19:49.993Z,39.69
2023-07-03T11:22:49.910Z,51.49
2023-07-03T11:23:50.006Z,42.43
2023-07-03T11:24:49.925Z,45.19
2023-07-03T11:28:49.907Z,52.12
2023-07-03T11:29:49.894Z,55.57
2023-07-03T11:30:50.263Z,58.16
2023-07-03T11:31:50.908Z,66.06
2023-07-03T11:32:49.853Z,77.45
2023-07-03T11:36:51.865Z,70.33
2023-07-03T11:39:49.860Z,87.89
2023-07-03T11:40:50.055Z,83.20
2023-07-03T11:43:49.783Z,59.57
2023-07-03T11:44:49.847Z,58.45
2023-07-03T11:45:50.091Z,56.31
2023-07-03T11:46:49.797Z,46.65
2023-07-03T11:47:49.767Z,37.80
2023-07-03T11:48:49.814Z,57.09
2023-07-03T11:49:49.748Z,61.68
2023-07-03T11:50:49.746Z,48.66
2023-07-03T11:51:49.733Z,40.13
2023-07-03T11:52:49.708Z,59.66
2023-07-03T11:53:49.769Z,77.68
2023-07-03T11:54:49.717Z,78.23
2023-07-03T11:55:50.017Z,95.31
2023-07-03T11:56:49.680Z,91.90
2023-07-03T11:57:53.040Z,73.67
2023-07-03T11:58:50.728Z,73.95
2023-07-03T11:59:49.650Z,69.42
2023-07-03T12:00:49.696Z,48.67
2023-07-03T12:01:49.668Z,35.55
2023-07-03T12:02:49.720Z,36.85
2023-07-03T12:03:49.708Z,41.13
2023-07-03T12:04:50.345Z,44.98
2023-07-03T12:05:49.914Z,60.63
2023-07-03T12:06:49.616Z,70.38
2023-07-03T12:07:49.636Z,56.59
2023-07-03T12:08:49.633Z,54.38
2023-07-03T12:09:49.618Z,50.90
2023-07-03T12:10:49.588Z,44.90
2023-07-03T12:11:49.662Z,56.46
2023-07-03T12:12:49.641Z,70.61
2023-07-03T12:13:49.854Z,75.13
2023-07-03T12:14:49.768Z,67.67
2023-07-03T12:15:49.952Z,73.38
2023-07-03T12:16:49.854Z,60.42
2023-07-03T12:17:49.884Z,68.91
2023-07-03T12:18:49.925Z,59.03
2023-07-03T12:19:49.901Z,50.72
2023-07-03T12:20:49.909Z,52.14
2023-07-03T12:21:49.906Z,70.52
2023-07-03T12:22:49.920Z,67.48
2023-07-03T12:23:49.915Z,50.01
2023-07-03T12:24:49.933Z,53.27
2023-07-03T12:25:50.287Z,69.04
2023-07-03T12:26:50.058Z,84.52
2023-07-03T12:27:50.109Z,83.54
2023-07-03T12:28:50.099Z,82.98
2023-07-03T12:29:50.164Z,54.20
2023-07-03T12:30:50.191Z,55.00
2023-07-03T12:31:50.177Z,62.88
2023-07-03T12:32:50.233Z,63.17
2023-07-03T12:33:50.294Z,65.36
2023-07-03T12:34:50.331Z,60.12
2023-07-03T12:35:50.541Z,28.18
2023-07-03T12:36:54.222Z,31.28
2023-07-03T12:37:51.453Z,31.43
2023-07-03T12:38:50.430Z,32.26
2023-07-03T12:39:50.369Z,38.86
2023-07-03T12:40:50.450Z,54.92
2023-07-03T12:41:50.351Z,61.79
2023-07-03T12:42:50.409Z,60.69
2023-07-03T12:44:03.465Z,55.95
2023-07-03T12:44:51.386Z,56.02
2023-07-03T12:45:50.608Z,52.00
2023-07-03T12:46:50.340Z,57.44
2023-07-03T12:47:50.377Z,57.61
2023-07-03T12:48:50.335Z,55.72
2023-07-03T12:49:50.371Z,55.18
2023-07-03T12:50:50.763Z,53.64
2023-07-03T12:51:50.314Z,38.33
2023-07-03T12:52:50.310Z,36.69
2023-07-03T12:53:50.333Z,43.79
2023-07-03T12:54:53.465Z,55.16
2023-07-03T12:55:51.436Z,55.40
2023-07-03T12:56:50.284Z,56.63
2023-07-03T12:57:50.261Z,52.07
2023-07-03T12:58:50.266Z,29.86
2023-07-03T12:59:50.268Z,22.86
2023-07-03T13:00:50.315Z,27.05
2023-07-03T13:01:50.223Z,47.90
2023-07-03T13:02:50.241Z,31.54
2023-07-03T13:03:50.228Z,44.53
2023-07-03T13:04:50.290Z,33.26
2023-07-03T13:05:50.656Z,25.71
2023-07-03T13:06:50.217Z,37.77
2023-07-03T13:07:50.197Z,54.52